Time;durP1;ratioP1;P1;durP2;ratioP2;P2;SDS_P1;SDS_P2;PMS_P1;PMS_P2;Temp;Humidity;BMP_temperature;BMP_pressure;BME280_temperature;BME280_humidity;BME280_pressure;Samples;Min_cycle;Max_cycle;Signal;HPM_P1;HPM_P2
2022/09/14 00:01:42;;;;;;;3.22;0.73;;;20.30;99.90;;;;;;4126466;28;20482;-66
2022/09/14 00:03:43;;;;;;;2.00;0.80;;;20.30;99.90;;;;;;4129969;28;20438;-65
2022/09/14 00:05:45;;;;;;;1.85;0.60;;;20.30;99.90;;;;;;4129946;28;20026;-65
2022/09/14 00:07:46;;;;;;;1.55;0.70;;;20.30;99.90;;;;;;4130202;28;20478;-65
2022/09/14 00:09:47;;;;;;;1.45;0.57;;;20.30;99.90;;;;;;4129170;28;20044;-67
2022/09/14 00:11:50;;;;;;;2.23;0.80;;;20.40;99.90;;;;;;4132821;28;20582;-66
2022/09/14 00:13:51;;;;;;;1.95;0.80;;;20.40;99.90;;;;;;4137139;28;20040;-66
2022/09/14 00:15:52;;;;;;;1.52;0.80;;;20.40;99.90;;;;;;4132317;28;20382;-66
2022/09/14 00:17:53;;;;;;;3.28;0.77;;;20.40;99.90;;;;;;4135372;28;20030;-65
2022/09/14 00:19:53;;;;;;;0.90;0.50;;;20.40;99.90;;;;;;4132609;28;20050;-66
2022/09/14 00:21:56;;;;;;;2.92;0.90;;;20.50;99.90;;;;;;4131062;28;20030;-66
2022/09/14 00:23:57;;;;;;;;;;;20.50;99.90;;;;;;4136472;28;20041;-66
2022/09/14 00:26:09;;;;;;;3.88;1.08;;;20.50;99.90;;;;;;4135183;28;19917;-66
2022/09/14 00:28:10;;;;;;;1.55;0.60;;;20.50;99.90;;;;;;4134819;28;20049;-66
2022/09/14 00:30:11;;;;;;;2.28;0.55;;;20.50;99.90;;;;;;4132110;28;20075;-66
2022/09/14 00:32:12;;;;;;;4.68;0.85;;;20.50;99.90;;;;;;4132072;28;20054;-66
2022/09/14 00:34:14;;;;;;;3.05;0.95;;;20.50;99.90;;;;;;4136334;28;20956;-67
2022/09/14 00:36:26;;;;;;;1.00;0.60;;;20.50;99.90;;;;;;4138409;28;20026;-66
2022/09/14 00:38:27;;;;;;;3.22;1.13;;;20.40;99.90;;;;;;4132759;28;20030;-66
2022/09/14 00:40:28;;;;;;;6.65;1.45;;;20.20;99.90;;;;;;4133208;28;20041;-66
2022/09/14 00:42:28;;;;;;;1.92;0.90;;;19.90;99.90;;;;;;4130578;28;20048;-66
2022/09/14 00:44:29;;;;;;;3.13;1.20;;;19.80;99.90;;;;;;4132564;28;20042;-66
2022/09/14 00:46:34;;;;;;;4.88;0.90;;;19.60;99.90;;;;;;4134125;28;20397;-66
2022/09/14 00:48:35;;;;;;;2.22;0.98;;;19.50;99.90;;;;;;4131133;28;20437;-66
2022/09/14 00:50:36;;;;;;;3.60;0.90;;;19.40;99.90;;;;;;4130504;28;20030;-67
2022/09/14 00:52:40;;;;;;;4.80;0.93;;;19.40;99.90;;;;;;4135420;28;20034;-67
2022/09/14 00:54:52;;;;;;;3.42;0.80;;;19.40;99.90;;;;;;4136263;28;20477;-66
2022/09/14 00:56:53;;;;;;;3.78;1.10;;;19.40;99.90;;;;;;4134795;28;20493;-66
2022/09/14 00:58:57;;;;;;;4.13;0.80;;;19.40;99.90;;;;;;4130406;28;20469;-67
2022/09/14 01:00:58;;;;;;;3.53;0.90;;;19.40;99.90;;;;;;4132066;28;20037;-66
2022/09/14 01:02:59;;;;;;;4.15;0.93;;;19.30;99.90;;;;;;4134604;28;20049;-66
2022/09/14 01:05:00;;;;;;;3.55;1.17;;;19.30;99.90;;;;;;4137093;28;20049;-66
2022/09/14 01:07:25;;;;;;;1.50;0.55;;;19.20;99.90;;;;;;4134141;28;20030;-66
2022/09/14 01:10:00;;;;;;;2.40;0.82;;;19.10;99.90;;;;;;4131310;28;20037;-66
2022/09/14 01:12:33;;;;;;;1.83;0.80;;;19.10;99.90;;;;;;4129777;28;20042;-65
2022/09/14 01:14:42;;;;;;;2.67;0.80;;;19.00;99.90;;;;;;4121888;28;20125;-65
2022/09/14 01:17:10;;;;;;;5.10;0.80;;;19.10;99.90;;;;;;4130352;28;20620;-65
2022/09/14 01:19:22;;;;;;;4.45;1.15;;;19.10;99.90;;;;;;4128347;28;20054;-66
2022/09/14 01:21:27;;;;;;;2.97;0.80;;;19.20;99.90;;;;;;4134382;28;20069;-65
2022/09/14 01:23:37;;;;;;;2.25;0.85;;;19.10;99.90;;;;;;4132803;28;20034;-66
2022/09/14 01:25:50;;;;;;;4.47;0.95;;;18.90;99.90;;;;;;4133767;28;20050;-65
2022/09/14 01:27:51;;;;;;;4.68;1.15;;;18.90;99.90;;;;;;4131664;28;20054;-66
2022/09/14 01:30:11;;;;;;;2.50;0.70;;;18.90;99.90;;;;;;4132191;28;20041;-65
2022/09/14 01:32:27;;;;;;;1.58;0.93;;;18.80;99.90;;;;;;4132805;28;20030;-65
2022/09/14 01:34:37;;;;;;;2.10;0.70;;;18.80;99.90;;;;;;4136609;28;20029;-65
2022/09/14 01:36:41;;;;;;;2.78;0.90;;;18.90;99.90;;;;;;4133517;28;20045;-66
2022/09/14 01:38:50;;;;;;;2.55;0.90;;;18.90;99.90;;;;;;4134710;28;20114;-65
2022/09/14 01:40:52;;;;;;;4.05;1.08;;;18.90;99.90;;;;;;4150776;28;20056;-65
2022/09/14 01:43:02;;;;;;;3.05;1.02;;;18.90;99.90;;;;;;4131032;28;20049;-65
2022/09/14 01:45:09;;;;;;;2.30;0.80;;;18.90;99.90;;;;;;4133285;28;20050;-65
2022/09/14 01:47:16;;;;;;;4.25;1.25;;;18.90;99.90;;;;;;4132633;28;20350;-66
2022/09/14 01:49:32;;;;;;;3.45;0.90;;;18.90;99.90;;;;;;4129140;28;20445;-65
2022/09/14 01:51:45;;;;;;;1.70;0.65;;;18.90;99.90;;;;;;4128692;28;20027;-66
2022/09/14 01:53:59;;;;;;;3.00;0.88;;;18.90;99.90;;;;;;4136217;28;20716;-65
2022/09/14 01:56:20;;;;;;;5.68;1.10;;;18.90;99.90;;;;;;4133515;28;20030;-65
2022/09/14 01:58:39;;;;;;;3.05;1.00;;;18.90;99.90;;;;;;4131468;28;20109;-66
2022/09/14 02:00:45;;;;;;;2.97;0.80;;;18.90;99.90;;;;;;4129527;28;20038;-66
2022/09/14 02:02:48;;;;;;;3.13;0.98;;;19.00;99.90;;;;;;4134132;28;20371;-66
2022/09/14 02:05:15;;;;;;;6.03;1.20;;;18.80;99.90;;;;;;4130068;28;20034;-67
2022/09/14 02:07:17;;;;;;;5.55;1.40;;;18.50;99.90;;;;;;4133345;28;20679;-66
2022/09/14 02:09:21;;;;;;;2.28;1.00;;;18.30;99.90;;;;;;4129270;28;20119;-65
2022/09/14 02:11:22;;;;;;;3.35;1.00;;;18.30;99.90;;;;;;4131006;28;20597;-66
2022/09/14 02:13:24;;;;;;;2.80;0.90;;;18.30;99.90;;;;;;4131734;28;20042;-65
2022/09/14 02:15:25;;;;;;;1.88;0.77;;;18.30;99.90;;;;;;4132426;28;20058;-66
2022/09/14 02:17:26;;;;;;;2.38;0.73;;;18.40;99.90;;;;;;4134073;28;20039;-66
2022/09/14 02:19:33;;;;;;;3.70;1.17;;;18.30;99.90;;;;;;4126397;28;20093;-66
2022/09/14 02:21:34;;;;;;;2.20;0.77;;;18.30;99.90;;;;;;4134842;28;20124;-66
2022/09/14 02:23:35;;;;;;;1.88;0.80;;;18.30;99.90;;;;;;4134833;28;20037;-65
2022/09/14 02:25:36;;;;;;;3.45;1.08;;;18.30;99.90;;;;;;4132947;28;20043;-66
2022/09/14 02:27:36;;;;;;;2.22;1.10;;;18.30;99.90;;;;;;4131704;28;20030;-66
2022/09/14 02:29:37;;;;;;;5.20;1.13;;;18.40;99.90;;;;;;4127115;28;20121;-66
2022/09/14 02:32:29;;;;;;;2.50;0.70;;;18.40;99.90;;;;;;4127933;28;20034;-66
2022/09/14 02:34:54;;;;;;;3.60;0.90;;;18.40;99.90;;;;;;4090259;29;20032;-66
2022/09/14 02:37:10;;;;;;;2.45;0.90;;;18.50;99.90;;;;;;4123258;28;20543;-66
2022/09/14 02:39:13;;;;;;;1.73;0.73;;;18.60;99.90;;;;;;4126137;28;20049;-66
2022/09/14 02:41:39;;;;;;;2.28;1.08;;;18.70;99.90;;;;;;4127494;28;20112;-65
2022/09/14 02:44:11;;;;;;;2.90;0.60;;;18.70;99.90;;;;;;4123920;28;20034;-66
2022/09/14 02:46:36;;;;;;;4.05;0.95;;;18.80;99.90;;;;;;4116992;28;20030;-65
2022/09/14 02:49:15;;;;;;;2.20;0.80;;;18.80;99.90;;;;;;4126056;28;20038;-65
2022/09/14 02:51:33;;;;;;;3.90;1.20;;;18.90;99.90;;;;;;4114961;28;20147;-65
2022/09/14 02:53:52;;;;;;;3.42;1.02;;;18.80;99.90;;;;;;4127033;28;20054;-66
2022/09/14 02:56:03;;;;;;;2.63;1.02;;;18.70;99.90;;;;;;4125403;28;20449;-65
2022/09/14 02:58:10;;;;;;;3.42;1.00;;;18.60;99.90;;;;;;4128008;28;20034;-66
2022/09/14 03:00:11;;;;;;;3.70;0.90;;;18.60;99.90;;;;;;4124742;28;20038;-66
2022/09/14 03:02:11;;;;;;;2.20;0.77;;;18.60;99.90;;;;;;4128112;28;20034;-66
2022/09/14 03:04:12;;;;;;;3.67;1.30;;;18.50;99.90;;;;;;4127587;28;20049;-66
2022/09/14 03:06:13;;;;;;;2.63;0.77;;;18.60;99.90;;;;;;4126114;28;20030;-65
2022/09/14 03:08:14;;;;;;;3.60;0.90;;;18.50;99.90;;;;;;4127473;28;20031;-65
2022/09/14 03:10:14;;;;;;;5.82;1.10;;;18.40;99.90;;;;;;4126469;28;20136;-66
2022/09/14 03:12:15;;;;;;;2.17;1.25;;;18.40;99.90;;;;;;4128207;28;20034;-66
2022/09/14 03:14:15;;;;;;;1.33;0.60;;;18.20;99.90;;;;;;4127768;28;20486;-66
2022/09/14 03:16:17;;;;;;;2.92;1.10;;;18.30;99.90;;;;;;4126940;28;20034;-66
2022/09/14 03:18:18;;;;;;;0.68;0.55;;;18.40;99.90;;;;;;4127840;28;20031;-66
2022/09/14 03:20:24;;;;;;;2.15;0.80;;;18.40;99.90;;;;;;4124965;28;20070;-66
2022/09/14 03:22:25;;;;;;;3.53;0.85;;;18.50;99.90;;;;;;4127805;28;20034;-66
2022/09/14 03:24:25;;;;;;;3.53;0.98;;;18.60;99.90;;;;;;4127761;28;20022;-66
2022/09/14 03:26:27;;;;;;;2.33;1.05;;;18.60;99.90;;;;;;4126324;28;20393;-66
2022/09/14 03:28:28;;;;;;;2.53;0.93;;;18.70;99.90;;;;;;4127692;28;20026;-66
2022/09/14 03:30:29;;;;;;;3.15;1.15;;;18.80;99.90;;;;;;4124851;28;20740;-66
2022/09/14 03:32:30;;;;;;;2.08;0.80;;;18.80;99.90;;;;;;4123394;28;20455;-67
2022/09/14 03:34:31;;;;;;;2.97;0.70;;;18.80;99.90;;;;;;4127120;28;20029;-67
2022/09/14 03:36:32;;;;;;;3.28;1.00;;;18.90;99.90;;;;;;4126303;28;20049;-66
2022/09/14 03:38:32;;;;;;;2.50;0.98;;;18.90;99.90;;;;;;4126722;28;20486;-67
2022/09/14 03:40:33;;;;;;;3.50;1.00;;;18.90;99.90;;;;;;4124633;28;20042;-67
2022/09/14 03:42:34;;;;;;;1.90;0.80;;;18.90;99.90;;;;;;4127626;28;20478;-69
2022/09/14 03:44:34;;;;;;;4.00;1.25;;;19.00;99.90;;;;;;4127612;28;20390;-67
2022/09/14 03:46:35;;;;;;;4.40;0.90;;;19.00;99.90;;;;;;4126417;28;20062;-67
2022/09/14 03:48:36;;;;;;;2.65;0.90;;;19.00;99.90;;;;;;4126886;28;20041;-67
2022/09/14 03:50:37;;;;;;;2.60;0.80;;;19.00;99.90;;;;;;4129178;28;20026;-67
2022/09/14 03:52:38;;;;;;;2.80;0.93;;;19.00;99.90;;;;;;4131171;28;20045;-66
2022/09/14 03:54:39;;;;;;;2.65;1.00;;;19.00;99.90;;;;;;4134357;28;20088;-67
2022/09/14 03:56:39;;;;;;;3.13;1.30;;;18.90;99.90;;;;;;4132385;28;20031;-67
2022/09/14 03:58:40;;;;;;;1.60;0.77;;;19.00;99.90;;;;;;4129960;28;20551;-66
2022/09/14 04:00:41;;;;;;;3.08;0.70;;;19.00;99.90;;;;;;4126699;28;20043;-66
2022/09/14 04:02:42;;;;;;;3.05;1.27;;;18.90;99.90;;;;;;4130071;28;20584;-66
2022/09/14 04:04:43;;;;;;;4.50;1.10;;;18.90;99.90;;;;;;4133643;28;20647;-66
2022/09/14 04:06:44;;;;;;;3.75;1.27;;;18.90;99.90;;;;;;4127658;28;20031;-66
2022/09/14 04:08:45;;;;;;;4.30;1.60;;;18.90;99.90;;;;;;4125301;28;20476;-66
2022/09/14 04:10:46;;;;;;;3.75;1.38;;;18.80;99.90;;;;;;4126903;28;20043;-66
2022/09/14 04:12:46;;;;;;;2.80;1.40;;;18.80;99.90;;;;;;4127755;28;20508;-66
2022/09/14 04:14:47;;;;;;;4.22;1.30;;;18.80;99.90;;;;;;4127219;28;20396;-66
2022/09/14 04:16:47;;;;;;;4.70;1.35;;;18.80;99.90;;;;;;4124975;28;20026;-65
2022/09/14 04:18:48;;;;;;;3.83;1.02;;;18.80;99.90;;;;;;4128923;28;20038;-66
2022/09/14 04:21:17;;;;;;;2.58;0.98;;;18.70;99.90;;;;;;4131535;28;20093;-66
2022/09/14 04:23:17;;;;;;;2.85;1.00;;;18.70;99.90;;;;;;4122419;28;20041;-66
2022/09/14 04:25:18;;;;;;;2.78;0.93;;;18.70;99.90;;;;;;4125575;28;20493;-66
2022/09/14 04:27:19;;;;;;;1.85;0.77;;;18.70;99.90;;;;;;4126928;28;20109;-66
2022/09/14 04:29:19;;;;;;;2.20;0.80;;;18.60;99.90;;;;;;4124234;28;20038;-66
2022/09/14 04:31:20;;;;;;;5.03;1.00;;;18.70;99.90;;;;;;4128469;28;20038;-66
2022/09/14 04:33:21;;;;;;;4.80;1.42;;;18.60;99.90;;;;;;4130764;28;20045;-67
2022/09/14 04:35:22;;;;;;;2.38;0.77;;;18.60;99.90;;;;;;4129636;28;20049;-67
2022/09/14 04:37:23;;;;;;;2.30;0.80;;;18.60;99.90;;;;;;4129931;28;20057;-66
2022/09/14 04:39:25;;;;;;;2.28;1.00;;;18.50;99.90;;;;;;4123947;28;20070;-67
2022/09/14 04:41:27;;;;;;;2.00;1.13;;;18.50;99.90;;;;;;4128665;28;20125;-66
2022/09/14 04:43:27;;;;;;;5.47;0.98;;;18.50;99.90;;;;;;4125743;28;20030;-66
2022/09/14 04:45:29;;;;;;;3.42;1.17;;;18.40;99.90;;;;;;4126196;28;20058;-66
2022/09/14 04:47:30;;;;;;;3.88;0.90;;;18.40;99.90;;;;;;4127121;28;20037;-66
2022/09/14 04:49:30;;;;;;;3.53;1.05;;;18.40;99.90;;;;;;4123334;28;20038;-66
2022/09/14 04:51:32;;;;;;;3.38;1.02;;;18.30;99.90;;;;;;4127118;28;20034;-66
2022/09/14 04:53:35;;;;;;;3.15;1.20;;;18.40;99.90;;;;;;4130378;28;20398;-66
2022/09/14 04:55:36;;;;;;;;;;;18.30;99.90;;;;;;4129616;28;20042;-67
2022/09/14 04:57:36;;;;;;;4.55;1.20;;;18.20;99.90;;;;;;4130040;28;20362;-66
2022/09/14 04:59:37;;;;;;;2.70;1.10;;;18.20;99.90;;;;;;4127143;28;20035;-67
2022/09/14 05:01:43;;;;;;;2.00;1.00;;;18.20;99.90;;;;;;4129233;28;20405;-67
2022/09/14 05:03:44;;;;;;;2.60;1.10;;;18.20;99.90;;;;;;4129363;28;20042;-66
2022/09/14 05:05:44;;;;;;;2.05;0.80;;;18.10;99.90;;;;;;4128580;28;20544;-68
2022/09/14 05:07:45;;;;;;;3.50;1.33;;;18.10;99.90;;;;;;4125530;28;20093;-67
2022/09/14 05:09:45;;;;;;;6.00;1.27;;;18.10;99.90;;;;;;4127455;28;20034;-67
2022/09/14 05:11:48;;;;;;;7.70;1.42;;;17.90;99.90;;;;;;4128551;28;20037;-67
2022/09/14 05:13:49;;;;;;;5.30;1.30;;;17.90;99.90;;;;;;4129121;28;20042;-67
2022/09/14 05:15:50;;;;;;;4.45;1.10;;;17.90;99.90;;;;;;4129162;28;20069;-67
2022/09/14 05:17:51;;;;;;;5.25;1.00;;;17.80;99.90;;;;;;4129446;28;20034;-70
2022/09/14 05:19:52;;;;;;;4.68;1.25;;;17.90;99.90;;;;;;4126721;28;20584;-68
2022/09/14 05:21:52;;;;;;;5.35;0.95;;;17.80;99.90;;;;;;4129159;28;20066;-68
2022/09/14 05:23:55;;;;;;;3.22;0.90;;;17.60;99.90;;;;;;4133348;28;20068;-67
2022/09/14 05:25:56;;;;;;;2.47;0.65;;;17.60;99.90;;;;;;4129425;28;20038;-68
2022/09/14 05:27:57;;;;;;;3.65;1.02;;;17.50;99.90;;;;;;4128616;28;20047;-68
2022/09/14 05:29:58;;;;;;;2.70;0.80;;;17.50;99.90;;;;;;4127491;28;20035;-68
2022/09/14 05:31:58;;;;;;;3.22;1.05;;;17.50;99.90;;;;;;4129058;28;20037;-67
2022/09/14 05:33:59;;;;;;;3.70;1.27;;;17.40;99.90;;;;;;4129345;28;20409;-68
2022/09/14 05:36:01;;;;;;;2.75;0.98;;;17.40;99.90;;;;;;4128074;28;20058;-68
2022/09/14 05:38:02;;;;;;;4.32;0.95;;;17.30;99.90;;;;;;4126245;28;20031;-68
2022/09/14 05:40:04;;;;;;;3.53;0.82;;;17.30;99.90;;;;;;4130120;28;20046;-69
2022/09/14 05:42:05;;;;;;;3.03;1.02;;;17.30;99.90;;;;;;4128570;28;20478;-69
2022/09/14 05:44:06;;;;;;;5.05;1.42;;;17.10;99.90;;;;;;4132564;28;20068;-68
2022/09/14 05:46:10;;;;;;;4.68;1.45;;;17.00;99.90;;;;;;4130545;28;20035;-68
2022/09/14 05:48:11;;;;;;;3.92;1.35;;;16.90;99.90;;;;;;4133817;28;20037;-67
2022/09/14 05:50:13;;;;;;;1.73;0.98;;;16.80;99.90;;;;;;4128280;28;20385;-68
2022/09/14 05:52:14;;;;;;;3.33;1.10;;;16.80;99.90;;;;;;4130479;28;20045;-67
2022/09/14 05:54:15;;;;;;;5.93;1.17;;;16.80;99.90;;;;;;4127597;28;20549;-67
2022/09/14 05:56:16;;;;;;;3.08;1.05;;;16.70;99.90;;;;;;4132189;28;20173;-67
2022/09/14 05:58:17;;;;;;;3.37;1.27;;;16.60;99.90;;;;;;4130732;28;20022;-67
2022/09/14 06:00:18;;;;;;;3.80;1.40;;;16.60;99.90;;;;;;4128328;28;20783;-67
2022/09/14 06:02:19;;;;;;;4.35;1.48;;;16.60;99.90;;;;;;4133904;28;20046;-67
2022/09/14 06:04:19;;;;;;;2.90;1.13;;;16.60;99.90;;;;;;4134212;28;20030;-67
2022/09/14 06:06:20;;;;;;;5.82;1.45;;;16.50;99.90;;;;;;4133874;28;20026;-67
2022/09/14 06:08:23;;;;;;;3.20;1.27;;;16.40;99.90;;;;;;4135856;28;20085;-67
2022/09/14 06:10:23;;;;;;;3.90;0.88;;;16.40;99.90;;;;;;4127357;28;20417;-67
2022/09/14 06:12:26;;;;;;;2.72;0.98;;;16.40;99.90;;;;;;4134113;28;20035;-67
2022/09/14 06:14:26;;;;;;;4.72;1.23;;;16.40;99.90;;;;;;4132727;28;20030;-67
2022/09/14 06:16:28;;;;;;;3.65;1.08;;;16.30;99.90;;;;;;4130932;28;20049;-67
2022/09/14 06:18:31;;;;;;;4.32;0.82;;;16.30;99.90;;;;;;4124905;28;20041;-67
2022/09/14 06:20:31;;;;;;;7.32;1.50;;;16.30;99.90;;;;;;4124670;28;20683;-67
2022/09/14 06:22:32;;;;;;;3.88;1.13;;;16.20;99.90;;;;;;4125227;28;20034;-67
2022/09/14 06:24:34;;;;;;;8.30;1.17;;;16.10;99.90;;;;;;4127564;28;20039;-66
2022/09/14 06:26:35;;;;;;;4.33;1.20;;;16.00;99.90;;;;;;4123218;28;20545;-66
2022/09/14 06:28:36;;;;;;;3.80;1.35;;;16.20;99.90;;;;;;4128354;28;20030;-67
2022/09/14 06:30:36;;;;;;;3.70;1.40;;;16.00;99.90;;;;;;4123922;28;20042;-67
2022/09/14 06:32:37;;;;;;;4.40;1.17;;;16.00;99.90;;;;;;4127661;28;20094;-67
2022/09/14 06:34:37;;;;;;;3.55;1.23;;;16.00;99.90;;;;;;4123804;28;20031;-67
2022/09/14 06:36:38;;;;;;;4.30;1.63;;;15.90;99.90;;;;;;4126400;28;20490;-67
2022/09/14 06:38:40;;;;;;;4.57;1.67;;;15.90;99.90;;;;;;4131577;28;20417;-66
2022/09/14 06:40:54;;;;;;;4.75;1.10;;;15.80;99.90;;;;;;4130008;28;20030;-66
2022/09/14 06:43:00;;;;;;;5.00;1.67;;;15.90;99.90;;;;;;4131398;28;20038;-66
2022/09/14 06:45:01;;;;;;;7.85;1.65;;;15.80;99.90;;;;;;4131221;28;20049;-66
2022/09/14 06:47:02;;;;;;;4.03;1.33;;;15.80;99.90;;;;;;4130026;28;20034;-65
2022/09/14 06:49:09;;;;;;;6.45;1.67;;;15.80;99.90;;;;;;4125907;28;20033;-65
2022/09/14 06:51:16;;;;;;;2.95;1.40;;;15.90;99.90;;;;;;4128103;28;20045;-65
2022/09/14 06:53:17;;;;;;;4.07;1.25;;;15.90;99.90;;;;;;4130728;28;20042;-65
2022/09/14 06:55:17;;;;;;;2.65;1.00;;;16.00;99.90;;;;;;4131211;28;20113;-65
2022/09/14 06:57:18;;;;;;;3.83;1.58;;;16.10;99.90;;;;;;4128620;28;20080;-66
2022/09/14 06:59:19;;;;;;;5.90;1.58;;;16.20;99.90;;;;;;4121176;28;20382;-66
2022/09/14 07:01:20;;;;;;;3.78;1.30;;;16.30;99.90;;;;;;4125188;28;20624;-65
2022/09/14 07:03:21;;;;;;;4.80;1.55;;;16.30;99.90;;;;;;4126921;28;20042;-66
2022/09/14 07:05:21;;;;;;;3.92;1.58;;;16.20;99.90;;;;;;4127105;28;20397;-66
2022/09/14 07:07:22;;;;;;;3.63;1.40;;;16.20;99.90;;;;;;4136016;28;20073;-66
2022/09/14 07:09:23;;;;;;;6.57;2.00;;;16.30;99.90;;;;;;4127817;28;20046;-68
2022/09/14 07:11:26;;;;;;;6.32;1.80;;;15.90;99.90;;;;;;4126511;28;20041;-66
2022/09/14 07:13:28;;;;;;;3.85;1.48;;;15.90;99.90;;;;;;4132500;28;20501;-66
2022/09/14 07:15:28;;;;;;;3.47;1.70;;;15.90;99.90;;;;;;4129491;28;20126;-67
2022/09/14 07:17:29;;;;;;;2.13;1.10;;;15.90;99.90;;;;;;4128132;28;20038;-66
2022/09/14 07:19:30;;;;;;;3.67;1.17;;;16.00;99.90;;;;;;4127838;28;20038;-67
2022/09/14 07:21:32;;;;;;;4.55;1.60;;;16.10;99.90;;;;;;4128366;28;20517;-66
2022/09/14 07:23:36;;;;;;;4.05;1.45;;;16.10;99.90;;;;;;4130297;28;20054;-66
2022/09/14 07:25:36;;;;;;;3.15;1.65;;;16.00;99.90;;;;;;4125790;28;20042;-66
2022/09/14 07:27:38;;;;;;;4.82;1.50;;;16.10;99.90;;;;;;4127450;28;20489;-67
2022/09/14 07:29:38;;;;;;;2.97;1.48;;;16.10;99.90;;;;;;4125871;28;20030;-67
2022/09/14 07:31:41;;;;;;;10.65;1.90;;;16.20;99.90;;;;;;4127636;28;20274;-66
2022/09/14 07:33:44;;;;;;;5.72;1.83;;;16.10;99.90;;;;;;4128247;28;20487;-66
2022/09/14 07:35:44;;;;;;;4.10;1.80;;;16.00;99.90;;;;;;4125027;28;20030;-66
2022/09/14 07:37:45;;;;;;;3.60;1.42;;;16.00;99.90;;;;;;4127867;28;20073;-66
2022/09/14 07:39:46;;;;;;;4.05;1.88;;;16.00;99.90;;;;;;4127393;28;20035;-66
2022/09/14 07:41:47;;;;;;;8.27;2.13;;;16.00;99.90;;;;;;4124352;28;20050;-66
2022/09/14 07:43:53;;;;;;;2.78;1.20;;;16.00;99.90;;;;;;4127314;28;20030;-66
2022/09/14 07:45:54;;;;;;;3.28;1.58;;;16.10;99.90;;;;;;4126094;28;20084;-66
2022/09/14 07:47:55;;;;;;;4.53;1.92;;;16.20;99.90;;;;;;4126807;28;20039;-66
2022/09/14 07:49:56;;;;;;;4.93;2.17;;;16.30;99.90;;;;;;4129061;28;20394;-66
2022/09/14 07:51:56;;;;;;;5.00;2.15;;;16.30;99.90;;;;;;4123746;28;20042;-66
2022/09/14 07:53:59;;;;;;;7.45;2.45;;;16.30;99.90;;;;;;4126363;28;20082;-66
2022/09/14 07:56:01;;;;;;;7.40;2.80;;;16.30;99.90;;;;;;4125030;28;20038;-66
2022/09/14 07:58:01;;;;;;;5.75;2.50;;;16.30;99.90;;;;;;4126538;28;20393;-65
2022/09/14 08:00:02;;;;;;;9.32;2.35;;;16.30;99.90;;;;;;4124369;28;20073;-68
2022/09/14 08:02:09;;;;;;;3.97;2.60;;;16.30;99.90;;;;;;4125276;28;20035;-66
2022/09/14 08:04:10;;;;;;;8.27;2.45;;;16.40;99.90;;;;;;4124737;28;20477;-65
2022/09/14 08:06:17;;;;;;;5.35;2.22;;;16.40;99.90;;;;;;4125852;28;20033;-66
2022/09/14 08:08:17;;;;;;;6.90;2.70;;;16.40;99.90;;;;;;4128129;28;20022;-66
2022/09/14 08:10:18;;;;;;;5.00;2.17;;;16.40;99.90;;;;;;4122512;28;20122;-65
2022/09/14 08:12:18;;;;;;;8.27;2.30;;;16.40;99.90;;;;;;4127307;28;20019;-66
2022/09/14 08:14:19;;;;;;;4.97;1.98;;;16.40;99.90;;;;;;4127355;28;20034;-66
2022/09/14 08:16:21;;;;;;;6.10;2.10;;;16.30;99.90;;;;;;4123509;28;20120;-66
2022/09/14 08:18:22;;;;;;;4.82;2.05;;;16.20;99.90;;;;;;4126853;28;20441;-66
2022/09/14 08:20:22;;;;;;;5.88;2.17;;;16.30;99.90;;;;;;4126480;28;20054;-66
2022/09/14 08:22:24;;;;;;;4.40;1.65;;;16.20;99.90;;;;;;4127406;28;20122;-66
2022/09/14 08:24:24;;;;;;;3.88;1.75;;;16.30;99.90;;;;;;4128783;28;20034;-66
2022/09/14 08:26:27;;;;;;;6.05;2.05;;;16.40;99.90;;;;;;4132851;28;20049;-66
2022/09/14 08:28:27;;;;;;;3.58;1.52;;;16.40;99.90;;;;;;4135715;28;20038;-66
2022/09/14 08:30:28;;;;;;;5.70;2.17;;;16.40;99.90;;;;;;4131801;28;20446;-65
2022/09/14 08:32:28;;;;;;;4.03;1.83;;;16.40;99.90;;;;;;4131692;28;20429;-66
2022/09/14 08:34:29;;;;;;;7.68;2.40;;;16.50;99.90;;;;;;4130143;28;20109;-65
2022/09/14 08:36:32;;;;;;;6.07;2.35;;;16.40;99.90;;;;;;4129436;28;20125;-65
2022/09/14 08:38:33;;;;;;;4.43;2.20;;;16.40;99.90;;;;;;4130391;28;20034;-65
2022/09/14 08:40:34;;;;;;;7.05;2.80;;;16.40;99.90;;;;;;4128960;28;20031;-65
2022/09/14 08:42:37;;;;;;;7.95;2.45;;;16.40;99.90;;;;;;4132829;28;20046;-65
2022/09/14 08:44:43;;;;;;;6.47;2.50;;;16.20;99.90;;;;;;4128802;28;20040;-66
2022/09/14 08:46:52;;;;;;;9.85;2.72;;;16.20;99.90;;;;;;4129970;28;20038;-65
2022/09/14 08:48:53;;;;;;;9.95;2.42;;;16.20;99.90;;;;;;4130337;28;20390;-65
2022/09/14 08:50:54;;;;;;;8.07;2.80;;;16.00;99.90;;;;;;4129886;28;20449;-65
2022/09/14 08:52:55;;;;;;;6.45;2.67;;;15.90;99.90;;;;;;4129762;28;20054;-66
2022/09/14 08:54:59;;;;;;;9.88;2.45;;;15.90;99.90;;;;;;4129171;28;20098;-66
2022/09/14 08:57:08;;;;;;;6.47;2.17;;;15.80;99.90;;;;;;4129005;28;20030;-66
2022/09/14 08:59:23;;;;;;;6.15;2.00;;;15.80;99.90;;;;;;4129931;28;20034;-66
2022/09/14 09:01:37;;;;;;;2.75;1.30;;;15.90;99.90;;;;;;4126379;28;20120;-65
2022/09/14 09:03:57;;;;;;;5.70;2.10;;;15.90;99.90;;;;;;4129062;28;20544;-66
2022/09/14 09:06:10;;;;;;;9.13;2.50;;;15.90;99.90;;;;;;4128743;28;20069;-65
2022/09/14 09:08:33;;;;;;;5.78;2.20;;;15.90;99.90;;;;;;4129964;28;20049;-65
2022/09/14 09:10:37;;;;;;;4.83;2.27;;;15.90;99.90;;;;;;4127965;28;20083;-65
2022/09/14 09:12:44;;;;;;;7.18;2.50;;;15.90;99.90;;;;;;4133279;28;20617;-66
2022/09/14 09:14:55;;;;;;;4.32;2.40;;;15.90;99.90;;;;;;4131656;28;20038;-64
2022/09/14 09:16:58;;;;;;;5.70;2.08;;;15.90;99.90;;;;;;4126442;28;20489;-65
2022/09/14 09:19:04;;;;;;;7.72;2.80;;;15.90;99.90;;;;;;4130414;28;20110;-65
2022/09/14 09:21:08;;;;;;;4.95;2.05;;;15.90;99.90;;;;;;4129137;28;20034;-65
2022/09/14 09:23:18;;;;;;;7.88;2.45;;;16.00;99.90;;;;;;4131802;28;20081;-65
2022/09/14 09:25:25;;;;;;;4.25;2.05;;;16.10;99.90;;;;;;4130676;28;20030;-65
2022/09/14 09:27:26;;;;;;;3.08;1.77;;;16.20;99.90;;;;;;4125449;28;20041;-66
2022/09/14 09:29:27;;;;;;;2.80;1.90;;;16.20;99.90;;;;;;4129467;28;20048;-65
2022/09/14 09:31:41;;;;;;;4.30;2.03;;;16.30;99.90;;;;;;4127344;28;20519;-65
2022/09/14 09:33:43;;;;;;;3.20;1.70;;;16.40;99.90;;;;;;4129545;28;20034;-66
2022/09/14 09:35:44;;;;;;;8.90;3.28;;;16.40;99.90;;;;;;4127504;28;20114;-65
2022/09/14 09:37:44;;;;;;;5.82;2.30;;;16.40;99.90;;;;;;4128784;28;20034;-66
2022/09/14 09:39:45;;;;;;;6.63;2.20;;;16.40;99.90;;;;;;4132552;28;20114;-66
2022/09/14 09:42:02;;;;;;;2.97;1.80;;;16.30;99.90;;;;;;4134559;28;20525;-66
2022/09/14 09:44:08;;;;;;;4.75;1.98;;;16.40;99.90;;;;;;4130091;28;20038;-66
2022/09/14 09:46:11;;;;;;;10.27;2.92;;;16.40;99.90;;;;;;4132374;28;20401;-66
2022/09/14 09:48:13;;;;;;;5.63;2.20;;;16.20;99.90;;;;;;4130813;28;20328;-65
2022/09/14 09:50:20;;;;;;;4.55;1.88;;;16.20;99.90;;;;;;4134812;28;20045;-66
2022/09/14 09:52:21;;;;;;;7.90;2.30;;;16.30;99.90;;;;;;4126929;28;20034;-65
2022/09/14 09:54:30;;;;;;;7.07;2.75;;;16.10;99.90;;;;;;4128422;28;20057;-65
2022/09/14 09:56:35;;;;;;;8.32;2.42;;;16.10;99.90;;;;;;4128392;28;20045;-65
2022/09/14 09:58:37;;;;;;;8.40;2.38;;;16.00;99.90;;;;;;4127484;28;20038;-65
2022/09/14 10:00:38;;;;;;;5.50;2.42;;;16.00;99.90;;;;;;4131225;28;20044;-66
2022/09/14 10:02:39;;;;;;;5.88;2.22;;;15.80;99.90;;;;;;4134826;28;20161;-66
2022/09/14 10:04:55;;;;;;;6.18;2.20;;;15.90;99.90;;;;;;4128414;28;20034;-65
2022/09/14 10:06:58;;;;;;;3.33;1.50;;;15.90;99.90;;;;;;4125390;28;20022;-66
2022/09/14 10:08:59;;;;;;;3.03;1.80;;;16.00;99.90;;;;;;4126712;28;20034;-65
2022/09/14 10:11:02;;;;;;;2.42;1.50;;;16.10;99.90;;;;;;4126656;28;20382;-66
2022/09/14 10:13:03;;;;;;;;;;;16.20;99.90;;;;;;4132187;28;20053;-65
2022/09/14 10:15:13;;;;;;;5.25;2.20;;;16.10;99.90;;;;;;4127200;28;19979;-65
2022/09/14 10:17:22;;;;;;;3.70;1.75;;;16.10;99.90;;;;;;4125074;28;20056;-65
2022/09/14 10:19:26;;;;;;;4.70;1.75;;;16.10;99.90;;;;;;4128265;28;20070;-65
2022/09/14 10:21:28;;;;;;;4.78;2.13;;;16.10;99.90;;;;;;4126896;28;20046;-65
2022/09/14 10:23:32;;;;;;;5.53;2.22;;;16.10;99.90;;;;;;4125419;28;20433;-65
2022/09/14 10:25:32;;;;;;;4.97;1.83;;;16.00;99.90;;;;;;4129437;28;20114;-65
2022/09/14 10:28:01;;;;;;;3.35;1.90;;;16.00;99.90;;;;;;4127667;28;20506;-65
2022/09/14 10:30:04;;;;;;;4.10;2.17;;;16.20;99.90;;;;;;4113898;28;20161;-65
2022/09/14 10:32:21;;;;;;;5.03;2.53;;;16.20;99.90;;;;;;4124411;28;20109;-65
2022/09/14 10:34:22;;;;;;;5.20;2.08;;;16.20;99.90;;;;;;4128018;28;20034;-66
2022/09/14 10:36:30;;;;;;;5.95;2.42;;;16.30;99.90;;;;;;4125448;28;20058;-66
2022/09/14 10:38:44;;;;;;;2.95;2.00;;;16.30;99.90;;;;;;4125167;28;20386;-65
2022/09/14 10:40:51;;;;;;;3.13;1.88;;;16.30;99.90;;;;;;4125646;28;20034;-65
2022/09/14 10:43:15;;;;;;;7.30;2.47;;;16.30;99.90;;;;;;4126315;28;20065;-66
2022/09/14 10:45:33;;;;;;;6.88;2.30;;;16.40;99.90;;;;;;4123677;28;20093;-65
2022/09/14 10:47:39;;;;;;;9.40;2.60;;;16.40;99.90;;;;;;4123733;28;20399;-66
2022/09/14 10:49:58;;;;;;;6.05;3.10;;;16.40;99.90;;;;;;4125766;28;20053;-66